Time;durP1;ratioP1;P1;durP2;ratioP2;P2;SDS_P1;SDS_P2;PMS_P1;PMS_P2;Temp;Humidity;BMP_temperature;BMP_pressure;BME280_temperature;BME280_humidity;BME280_pressure;Samples;Min_cycle;Max_cycle;Signal;HPM_P1;HPM_P2
2021/03/14 00:01:12;;;;;;;13.70;2.35;;;5.90;99.90;;;;;;4990515;28;20108;-84
2021/03/14 00:03:38;;;;;;;17.05;1.88;;;5.90;99.90;;;;;;4989542;28;20053;-84
2021/03/14 00:06:05;;;;;;;11.07;1.98;;;5.90;99.90;;;;;;4995693;28;20046;-84
2021/03/14 00:08:31;;;;;;;13.93;2.08;;;5.90;99.90;;;;;;4998596;28;20044;-84
2021/03/14 00:11:00;;;;;;;12.13;1.70;;;5.80;99.90;;;;;;4996105;28;20077;-84
2021/03/14 00:13:29;;;;;;;7.60;2.47;;;5.80;99.90;;;;;;4994611;28;20042;-84
2021/03/14 00:15:57;;;;;;;14.27;2.20;;;5.80;99.90;;;;;;4991443;28;20073;-84
2021/03/14 00:18:31;;;;;;;8.48;1.60;;;5.80;99.90;;;;;;5007838;28;20049;-84
2021/03/14 00:20:58;;;;;;;12.50;1.90;;;5.80;99.90;;;;;;5007311;28;20070;-84
2021/03/14 00:23:25;;;;;;;14.77;1.70;;;5.90;99.90;;;;;;5009141;28;20076;-84
2021/03/14 00:25:53;;;;;;;22.55;2.90;;;5.80;99.90;;;;;;5007326;28;20467;-85
2021/03/14 00:28:19;;;;;;;14.38;2.70;;;5.90;99.90;;;;;;4989261;28;20495;-84
2021/03/14 00:30:46;;;;;;;17.85;2.70;;;5.80;99.90;;;;;;4998288;28;20037;-84
2021/03/14 00:33:14;;;;;;;18.40;2.47;;;5.80;99.90;;;;;;5006766;28;20049;-85
2021/03/14 00:35:41;;;;;;;18.75;2.53;;;5.80;99.90;;;;;;5008202;28;20053;-83
2021/03/14 00:38:07;;;;;;;15.32;2.80;;;5.70;99.90;;;;;;4989821;28;20076;-83
2021/03/14 00:40:33;;;;;;;12.88;2.17;;;5.70;99.90;;;;;;4991156;28;20646;-83
2021/03/14 00:43:02;;;;;;;18.88;2.45;;;5.70;99.90;;;;;;5004499;28;20500;-83
2021/03/14 00:45:30;;;;;;;16.92;1.92;;;5.70;99.90;;;;;;5003967;28;20050;-83
2021/03/14 00:47:58;;;;;;;11.23;2.63;;;5.70;99.90;;;;;;5004859;28;20046;-83
2021/03/14 00:50:25;;;;;;;10.63;1.98;;;5.70;99.90;;;;;;4987281;28;20042;-83
2021/03/14 00:52:51;;;;;;;19.80;2.13;;;5.60;99.90;;;;;;4988691;28;20054;-83
2021/03/14 00:55:18;;;;;;;21.42;2.95;;;5.60;99.90;;;;;;5008724;28;20070;-83
2021/03/14 00:57:44;;;;;;;15.38;2.97;;;5.70;99.90;;;;;;4992671;28;20042;-82
2021/03/14 01:00:11;;;;;;;21.10;2.33;;;5.70;99.90;;;;;;4994817;28;20477;-82
2021/03/14 01:02:38;;;;;;;17.50;2.55;;;5.70;99.90;;;;;;4992202;28;20060;-83
2021/03/14 01:05:05;;;;;;;21.17;1.80;;;5.70;99.90;;;;;;5005513;28;20054;-83
2021/03/14 01:07:31;;;;;;;23.80;2.85;;;5.80;99.90;;;;;;5006638;28;20080;-84
2021/03/14 01:09:58;;;;;;;22.27;4.13;;;5.80;99.90;;;;;;4986741;28;20480;-83
2021/03/14 01:12:24;;;;;;;19.33;2.42;;;5.80;99.90;;;;;;5006309;28;20058;-83
2021/03/14 01:14:50;;;;;;;11.95;2.10;;;5.90;99.90;;;;;;4989337;28;20138;-83
2021/03/14 01:17:17;;;;;;;16.40;3.78;;;5.90;99.90;;;;;;4990289;28;20520;-82
2021/03/14 01:19:43;;;;;;;17.40;2.65;;;5.90;99.90;;;;;;4994522;28;21569;-83
2021/03/14 01:22:11;;;;;;;22.60;3.17;;;5.90;99.90;;;;;;5006287;28;20150;-83
2021/03/14 01:24:37;;;;;;;14.88;2.20;;;5.90;99.90;;;;;;4987272;28;20517;-83
2021/03/14 01:27:05;;;;;;;20.95;2.72;;;5.90;99.90;;;;;;5003989;28;20137;-83
2021/03/14 01:29:31;;;;;;;19.17;2.60;;;5.90;99.90;;;;;;4991531;28;20458;-84
2021/03/14 01:31:57;;;;;;;13.18;2.65;;;5.90;99.90;;;;;;4990013;28;20120;-83
2021/03/14 01:34:23;;;;;;;13.52;2.67;;;5.90;99.90;;;;;;5010249;28;20052;-82
2021/03/14 01:36:52;;;;;;;14.45;2.85;;;5.90;99.90;;;;;;4989566;28;20060;-83
2021/03/14 01:39:20;;;;;;;15.77;2.25;;;5.90;99.90;;;;;;5012583;28;20029;-83
2021/03/14 01:41:46;;;;;;;15.35;2.60;;;5.80;99.90;;;;;;4999903;28;20114;-83
2021/03/14 01:44:12;;;;;;;17.63;2.15;;;5.90;99.90;;;;;;4996433;28;20046;-83
2021/03/14 01:46:40;;;;;;;18.33;3.05;;;5.90;99.90;;;;;;4991300;28;20267;-84
2021/03/14 01:49:15;;;;;;;15.85;2.60;;;5.90;99.90;;;;;;4994791;28;20038;-83
2021/03/14 01:51:42;;;;;;;26.58;2.97;;;5.90;99.90;;;;;;4992592;28;20820;-83
2021/03/14 01:54:09;;;;;;;13.80;2.47;;;5.90;99.90;;;;;;4993993;28;20069;-83
2021/03/14 01:56:36;;;;;;;10.85;2.17;;;5.90;99.90;;;;;;5003643;28;20497;-83
2021/03/14 01:59:03;;;;;;;10.90;1.73;;;5.90;99.90;;;;;;5006303;28;20053;-83
2021/03/14 02:01:31;;;;;;;12.48;2.70;;;5.90;99.90;;;;;;5008025;28;20121;-83
2021/03/14 02:03:58;;;;;;;21.02;3.40;;;6.00;99.90;;;;;;5006689;28;20056;-84
2021/03/14 02:06:25;;;;;;;9.70;1.83;;;5.90;99.90;;;;;;4994591;28;20163;-83
2021/03/14 02:08:51;;;;;;;12.02;2.67;;;6.00;99.90;;;;;;5009074;28;20085;-84
2021/03/14 02:11:21;;;;;;;5.90;1.67;;;6.00;99.90;;;;;;4997549;28;20066;-83
2021/03/14 02:13:49;;;;;;;12.60;2.05;;;6.00;99.90;;;;;;4997705;28;20049;-84
2021/03/14 02:16:30;;;;;;;15.25;2.75;;;6.00;99.90;;;;;;4992046;28;20939;-84
2021/03/14 02:19:00;;;;;;;15.68;2.15;;;6.00;99.90;;;;;;4990159;28;20077;-84
2021/03/14 02:21:31;;;;;;;12.18;1.42;;;6.00;99.90;;;;;;4991209;28;20132;-83
2021/03/14 02:24:09;;;;;;;10.80;2.13;;;6.00;99.90;;;;;;5006034;28;20081;-83
2021/03/14 02:26:43;;;;;;;13.70;2.97;;;6.00;99.90;;;;;;5012275;28;20128;-83
2021/03/14 02:29:14;;;;;;;11.27;2.65;;;6.00;99.90;;;;;;5007837;28;20109;-83
2021/03/14 02:31:42;;;;;;;19.50;2.45;;;6.00;99.90;;;;;;5007383;28;20133;-84
2021/03/14 02:34:15;;;;;;;12.25;2.03;;;6.00;99.90;;;;;;4994389;28;20053;-83
2021/03/14 02:36:43;;;;;;;23.40;3.58;;;6.10;99.90;;;;;;4997449;28;20620;-83
2021/03/14 02:39:13;;;;;;;10.50;1.60;;;6.10;99.90;;;;;;4992309;28;20060;-82
2021/03/14 02:41:41;;;;;;;12.07;1.95;;;6.00;99.90;;;;;;5009843;28;20046;-83
2021/03/14 02:44:13;;;;;;;16.42;3.47;;;6.00;99.90;;;;;;5007951;28;20066;-83
2021/03/14 02:46:43;;;;;;;18.60;2.25;;;6.00;99.90;;;;;;4993960;28;20050;-83
2021/03/14 02:49:11;;;;;;;17.83;1.92;;;6.00;99.90;;;;;;4994731;28;20049;-83
2021/03/14 02:51:40;;;;;;;17.23;2.40;;;5.90;99.90;;;;;;4987340;28;20144;-83
2021/03/14 02:54:07;;;;;;;11.00;1.75;;;6.00;99.90;;;;;;5002974;28;20104;-83
2021/03/14 02:56:36;;;;;;;3.60;1.30;;;6.00;99.90;;;;;;4993443;28;20053;-83
2021/03/14 02:59:04;;;;;;;3.97;0.77;;;5.90;99.90;;;;;;5008642;28;20126;-83
2021/03/14 03:01:31;;;;;;;3.80;0.68;;;5.80;99.90;;;;;;4993472;28;20284;-83
2021/03/14 03:04:00;;;;;;;0.90;0.47;;;5.70;99.90;;;;;;5007096;28;20465;-83
2021/03/14 03:06:27;;;;;;;0.88;0.40;;;5.50;99.90;;;;;;4992063;28;20046;-84
2021/03/14 03:08:54;;;;;;;1.63;0.60;;;5.40;99.90;;;;;;4996897;28;20112;-84
2021/03/14 03:11:21;;;;;;;3.17;0.50;;;5.20;99.90;;;;;;4998600;28;20740;-83
2021/03/14 03:13:48;;;;;;;3.05;0.75;;;5.20;99.90;;;;;;4995569;28;20069;-83
2021/03/14 03:16:17;;;;;;;2.60;0.98;;;5.10;99.90;;;;;;5008623;28;20557;-82
2021/03/14 03:18:45;;;;;;;3.70;0.90;;;5.00;99.90;;;;;;4992509;28;20042;-83
2021/03/14 03:21:12;;;;;;;4.15;1.10;;;5.00;99.90;;;;;;5009242;28;20045;-82
2021/03/14 03:23:39;;;;;;;5.22;1.77;;;5.00;99.90;;;;;;4991266;28;20066;-83
2021/03/14 03:26:06;;;;;;;4.70;1.40;;;4.90;99.90;;;;;;4991091;28;20058;-83
2021/03/14 03:28:34;;;;;;;5.47;1.65;;;4.80;99.90;;;;;;5003806;28;20078;-83
2021/03/14 03:31:01;;;;;;;7.60;1.20;;;4.80;99.90;;;;;;4997969;28;20041;-82
2021/03/14 03:33:28;;;;;;;7.85;1.52;;;4.80;99.90;;;;;;4987373;28;20056;-83
2021/03/14 03:35:54;;;;;;;2.65;1.00;;;4.80;99.90;;;;;;4992460;28;20045;-83
2021/03/14 03:38:21;;;;;;;3.97;1.42;;;4.80;99.90;;;;;;5008117;28;20064;-83
2021/03/14 03:40:47;;;;;;;6.40;1.65;;;4.80;99.90;;;;;;4995168;28;20136;-83
2021/03/14 03:43:23;;;;;;;4.63;1.13;;;4.80;99.90;;;;;;5005826;28;20142;-83
2021/03/14 03:45:53;;;;;;;6.25;1.30;;;4.90;99.90;;;;;;5006529;28;20045;-83
2021/03/14 03:48:26;;;;;;;14.23;2.47;;;4.90;99.90;;;;;;4984916;28;20084;-83
2021/03/14 03:50:57;;;;;;;5.72;1.88;;;5.00;99.90;;;;;;5007601;28;20517;-82
2021/03/14 03:53:24;;;;;;;11.88;1.40;;;5.00;99.90;;;;;;5006392;28;20050;-82
2021/03/14 03:55:53;;;;;;;6.65;1.42;;;4.90;99.90;;;;;;5008953;28;20109;-81
2021/03/14 03:58:21;;;;;;;6.10;1.50;;;4.80;99.90;;;;;;4995354;28;20521;-81
2021/03/14 04:00:48;;;;;;;9.98;1.85;;;4.70;99.90;;;;;;4995833;28;20046;-81
2021/03/14 04:03:15;;;;;;;3.63;1.20;;;4.60;99.90;;;;;;4990794;28;20053;-82
2021/03/14 04:05:43;;;;;;;4.38;1.33;;;4.60;99.90;;;;;;4985240;28;20045;-81
2021/03/14 04:08:11;;;;;;;5.10;0.95;;;4.50;99.90;;;;;;5007101;28;20062;-81
2021/03/14 04:10:38;;;;;;;4.55;0.80;;;4.40;99.90;;;;;;4998538;28;20057;-81
2021/03/14 04:13:06;;;;;;;4.70;0.70;;;4.30;99.90;;;;;;5007510;28;20054;-81
2021/03/14 04:15:33;;;;;;;4.53;1.00;;;4.30;99.90;;;;;;4990742;28;20141;-81
2021/03/14 04:18:00;;;;;;;9.77;0.95;;;4.20;99.90;;;;;;5006312;28;20132;-82
2021/03/14 04:20:31;;;;;;;4.82;1.35;;;4.20;99.90;;;;;;5007011;28;20589;-81
2021/03/14 04:23:00;;;;;;;9.80;1.30;;;4.20;99.90;;;;;;4988169;28;20924;-81
2021/03/14 04:25:27;;;;;;;3.75;0.93;;;4.20;99.90;;;;;;5009072;28;20077;-81
2021/03/14 04:27:57;;;;;;;7.10;1.60;;;4.20;99.90;;;;;;4989723;28;20104;-81
2021/03/14 04:30:26;;;;;;;7.85;2.45;;;4.20;99.90;;;;;;4996362;28;20069;-81
2021/03/14 04:32:53;;;;;;;5.13;1.95;;;4.30;99.90;;;;;;5007519;28;20056;-81
2021/03/14 04:35:21;;;;;;;5.72;1.80;;;4.30;99.90;;;;;;5008254;28;20108;-81
2021/03/14 04:37:48;;;;;;;7.03;2.22;;;4.30;99.90;;;;;;5006639;28;20100;-81
2021/03/14 04:40:15;;;;;;;5.93;1.98;;;4.30;99.90;;;;;;5007104;28;20078;-81
2021/03/14 04:42:46;;;;;;;6.57;1.85;;;4.30;99.90;;;;;;4995056;28;20058;-82
2021/03/14 04:45:14;;;;;;;11.85;2.38;;;4.30;99.90;;;;;;4995391;28;20046;-82
2021/03/14 04:47:41;;;;;;;10.27;3.13;;;4.30;99.90;;;;;;4991419;28;20053;-81
2021/03/14 04:50:11;;;;;;;10.27;1.90;;;4.40;99.90;;;;;;5009506;28;20057;-81
2021/03/14 04:52:38;;;;;;;3.38;1.98;;;4.40;99.90;;;;;;5009073;28;20102;-82
2021/03/14 04:55:08;;;;;;;10.63;2.17;;;4.40;99.90;;;;;;5009207;28;20101;-81
2021/03/14 04:57:37;;;;;;;14.10;3.20;;;4.40;99.90;;;;;;4983371;28;20060;-82
2021/03/14 05:00:06;;;;;;;5.18;2.00;;;4.40;99.90;;;;;;4993236;28;20408;-82
2021/03/14 05:02:34;;;;;;;11.10;2.55;;;4.40;99.90;;;;;;4997720;28;20058;-82
2021/03/14 05:05:02;;;;;;;11.30;2.22;;;4.40;99.90;;;;;;4988024;28;20080;-82
2021/03/14 05:07:29;;;;;;;6.72;2.83;;;4.40;99.90;;;;;;4989268;28;20061;-81
2021/03/14 05:09:58;;;;;;;14.02;2.55;;;4.40;99.90;;;;;;4991928;28;20497;-82
2021/03/14 05:12:25;;;;;;;6.07;2.40;;;4.40;99.90;;;;;;4998128;28;20622;-81
2021/03/14 05:14:51;;;;;;;7.18;2.30;;;4.40;99.90;;;;;;5010731;28;20046;-82
2021/03/14 05:17:19;;;;;;;11.35;2.67;;;4.40;99.90;;;;;;4994898;28;21751;-82
2021/03/14 05:19:45;;;;;;;9.60;2.92;;;4.40;99.90;;;;;;4995233;28;20140;-81
2021/03/14 05:22:12;;;;;;;10.50;2.28;;;4.40;99.90;;;;;;5011918;28;20053;-81
2021/03/14 05:24:41;;;;;;;12.20;2.75;;;4.40;99.90;;;;;;5001556;28;20528;-82
2021/03/14 05:27:08;;;;;;;14.80;3.60;;;4.50;99.90;;;;;;5007848;28;20058;-82
2021/03/14 05:29:36;;;;;;;22.70;3.30;;;4.50;99.90;;;;;;4992359;28;20089;-82
2021/03/14 05:32:02;;;;;;;9.57;3.67;;;4.60;99.90;;;;;;4995125;28;20858;-82
2021/03/14 05:34:31;;;;;;;16.17;2.88;;;4.60;99.90;;;;;;5006046;28;20054;-82
2021/03/14 05:36:58;;;;;;;10.93;2.65;;;4.60;99.90;;;;;;4989934;28;20058;-82
2021/03/14 05:39:24;;;;;;;10.77;2.42;;;4.70;99.90;;;;;;4994136;28;20105;-82
2021/03/14 05:41:51;;;;;;;17.60;2.75;;;4.70;99.90;;;;;;4989011;28;20124;-82
2021/03/14 05:44:17;;;;;;;23.58;3.75;;;4.80;99.90;;;;;;4986307;28;20129;-82
2021/03/14 05:46:44;;;;;;;11.90;2.63;;;4.80;99.90;;;;;;4989972;28;20057;-82
2021/03/14 05:49:10;;;;;;;19.25;2.50;;;4.80;99.90;;;;;;5007716;28;20099;-82
2021/03/14 05:51:48;;;;;;;11.80;2.95;;;4.90;99.90;;;;;;4989359;28;20054;-82
2021/03/14 05:54:16;;;;;;;16.13;3.50;;;4.90;99.90;;;;;;5004944;28;20808;-82
2021/03/14 05:56:47;;;;;;;17.17;3.03;;;4.90;99.90;;;;;;5006658;28;20528;-82
2021/03/14 05:59:15;;;;;;;15.55;3.00;;;4.90;99.90;;;;;;5005529;28;20470;-82
2021/03/14 06:01:48;;;;;;;9.80;2.58;;;5.00;99.90;;;;;;5006818;28;20084;-82
2021/03/14 06:04:16;;;;;;;13.27;2.63;;;4.90;99.90;;;;;;5006831;28;20057;-82
2021/03/14 06:06:42;;;;;;;12.90;2.40;;;4.90;99.90;;;;;;4988323;28;20911;-82
2021/03/14 06:09:10;;;;;;;14.02;2.60;;;4.90;99.90;;;;;;4988730;28;20129;-81
2021/03/14 06:11:37;;;;;;;15.98;2.55;;;4.90;99.90;;;;;;5004354;28;20113;-82
2021/03/14 06:14:03;;;;;;;14.10;2.85;;;4.90;99.90;;;;;;5007929;28;20580;-81
2021/03/14 06:16:30;;;;;;;13.90;2.53;;;4.90;99.90;;;;;;5006877;28;20065;-83
2021/03/14 06:18:57;;;;;;;9.55;2.28;;;4.90;99.90;;;;;;5007204;28;20046;-82
2021/03/14 06:21:28;;;;;;;20.02;3.40;;;4.90;99.90;;;;;;4996419;28;20065;-82
2021/03/14 06:24:07;;;;;;;8.43;2.30;;;4.90;99.90;;;;;;5005912;28;20053;-82
2021/03/14 06:26:36;;;;;;;13.77;2.97;;;4.90;99.90;;;;;;4993842;28;20129;-81
2021/03/14 06:29:22;;;;;;;10.35;2.70;;;4.90;99.90;;;;;;5007171;28;20137;-83
2021/03/14 06:31:54;;;;;;;10.32;2.38;;;4.90;99.90;;;;;;5004058;28;20029;-82
2021/03/14 06:34:28;;;;;;;11.63;2.20;;;5.00;99.90;;;;;;4992073;28;20151;-82
2021/03/14 06:37:08;;;;;;;7.75;2.30;;;4.90;99.90;;;;;;5004804;28;20569;-82
2021/03/14 06:39:39;;;;;;;12.82;2.53;;;5.00;99.90;;;;;;4987408;28;20108;-82
2021/03/14 06:42:07;;;;;;;16.95;3.25;;;5.00;99.90;;;;;;4989456;28;20045;-83
2021/03/14 06:44:45;;;;;;;16.83;2.90;;;5.10;99.90;;;;;;4991079;28;20050;-82
2021/03/14 06:47:12;;;;;;;21.00;2.90;;;5.10;99.90;;;;;;4988980;28;20077;-81
2021/03/14 06:49:40;;;;;;;14.95;2.35;;;5.10;99.90;;;;;;4997998;28;20049;-83
2021/03/14 06:52:08;;;;;;;14.57;3.28;;;5.20;99.90;;;;;;5009047;28;20089;-82
2021/03/14 06:54:40;;;;;;;17.02;3.95;;;5.20;99.90;;;;;;5006992;28;20136;-82
2021/03/14 06:57:14;;;;;;;11.43;3.10;;;5.20;99.90;;;;;;4989968;28;20064;-82
2021/03/14 06:59:53;;;;;;;15.60;2.78;;;5.20;99.90;;;;;;4990482;28;20481;-82
2021/03/14 07:02:32;;;;;;;9.82;2.88;;;5.30;99.90;;;;;;4992204;28;20056;-81
2021/03/14 07:05:07;;;;;;;15.35;2.92;;;5.40;99.90;;;;;;4988474;28;20046;-83
2021/03/14 07:07:41;;;;;;;17.70;2.75;;;5.40;99.90;;;;;;5007569;28;20559;-83
2021/03/14 07:10:17;;;;;;;22.60;3.63;;;5.50;99.90;;;;;;4990506;28;20073;-82
2021/03/14 07:12:47;;;;;;;11.25;2.78;;;5.50;99.90;;;;;;5005626;28;20084;-80
2021/03/14 07:15:15;;;;;;;17.55;4.10;;;5.60;99.90;;;;;;5001927;28;20073;-81
2021/03/14 07:18:01;;;;;;;13.13;3.15;;;5.60;99.90;;;;;;4992376;28;20050;-82
2021/03/14 07:20:31;;;;;;;21.65;4.88;;;5.70;99.90;;;;;;4985969;28;20589;-82
2021/03/14 07:23:09;;;;;;;21.42;4.65;;;5.80;99.90;;;;;;5005599;28;20058;-82
2021/03/14 07:25:41;;;;;;;16.85;3.60;;;5.90;99.90;;;;;;5002110;28;20133;-81
2021/03/14 07:28:07;;;;;;;13.48;3.45;;;6.00;99.90;;;;;;5004112;28;20050;-81
2021/03/14 07:30:33;;;;;;;20.90;3.05;;;6.00;99.90;;;;;;4985253;28;20133;-82
2021/03/14 07:33:00;;;;;;;10.82;3.45;;;6.10;99.90;;;;;;4999004;28;20055;-83
2021/03/14 07:35:27;;;;;;;18.95;3.35;;;6.10;99.90;;;;;;4969789;28;20058;-81
2021/03/14 07:37:54;;;;;;;18.13;4.15;;;6.20;99.90;;;;;;5002408;28;20129;-82
2021/03/14 07:40:26;;;;;;;14.55;3.60;;;6.30;99.90;;;;;;4988091;28;20057;-84
2021/03/14 07:43:02;;;;;;;14.77;3.88;;;6.40;99.90;;;;;;5006447;28;20052;-80
2021/03/14 07:45:32;;;;;;;16.55;3.33;;;6.40;99.90;;;;;;4978884;28;20089;-82
2021/03/14 07:48:00;;;;;;;18.73;3.38;;;6.50;99.90;;;;;;4973680;28;20073;-83
2021/03/14 07:50:42;;;;;;;17.92;3.42;;;6.60;99.90;;;;;;4997870;28;20064;-82
2021/03/14 07:53:10;;;;;;;22.70;5.85;;;6.70;99.90;;;;;;5008634;28;20466;-81
2021/03/14 07:55:39;;;;;;;17.50;5.00;;;6.80;99.90;;;;;;4992026;28;20046;-85
2021/03/14 07:58:11;;;;;;;19.20;4.28;;;6.80;99.90;;;;;;4990042;28;20145;-82
2021/03/14 08:00:38;;;;;;;19.38;3.78;;;6.80;99.90;;;;;;4988743;28;20069;-81
2021/03/14 08:03:09;;;;;;;13.95;4.20;;;6.90;99.90;;;;;;4992837;28;20057;-79
2021/03/14 08:05:41;;;;;;;18.42;4.63;;;7.00;99.90;;;;;;5000018;28;20057;-83
2021/03/14 08:08:23;;;;;;;26.70;5.05;;;7.10;99.90;;;;;;5008378;28;20062;-82
2021/03/14 08:10:50;;;;;;;17.25;5.07;;;7.20;99.90;;;;;;5005638;28;20045;-82
2021/03/14 08:13:31;;;;;;;27.00;4.45;;;7.30;99.90;;;;;;4998121;28;21034;-81
2021/03/14 08:16:08;;;;;;;17.10;3.50;;;7.30;99.90;;;;;;5011363;28;20556;-84
2021/03/14 08:18:46;;;;;;;17.75;4.63;;;7.40;99.90;;;;;;4995435;28;20057;-79
2021/03/14 08:21:35;;;;;;;21.88;4.78;;;7.40;99.90;;;;;;4977575;28;20057;-84
2021/03/14 08:24:13;;;;;;;14.13;4.18;;;7.50;99.90;;;;;;5001740;28;20136;-84
2021/03/14 08:26:39;;;;;;;16.95;3.92;;;7.60;99.90;;;;;;5002068;28;20063;-82
2021/03/14 08:29:12;;;;;;;20.48;4.15;;;7.70;99.90;;;;;;5006993;28;20050;-83
2021/03/14 08:31:50;;;;;;;18.92;4.13;;;7.80;99.90;;;;;;5002646;28;20046;-83
2021/03/14 08:34:18;;;;;;;20.05;3.90;;;7.80;99.90;;;;;;4992834;28;20045;-81
2021/03/14 08:36:46;;;;;;;14.68;5.40;;;7.90;99.90;;;;;;4997442;28;20076;-82
2021/03/14 08:39:23;;;;;;;11.63;3.60;;;7.90;99.90;;;;;;4994245;28;20053;-82
2021/03/14 08:41:58;;;;;;;19.17;4.00;;;8.00;99.90;;;;;;5001612;28;20124;-82
2021/03/14 08:44:33;;;;;;;15.80;4.07;;;8.10;99.90;;;;;;4991355;28;20046;-82
2021/03/14 08:47:11;;;;;;;18.67;4.32;;;8.10;99.90;;;;;;5002929;28;20050;-83
2021/03/14 08:49:50;;;;;;;26.00;4.22;;;8.20;99.90;;;;;;5012419;28;20080;-83
2021/03/14 08:52:18;;;;;;;15.55;4.28;;;8.30;99.90;;;;;;5009841;28;20363;-81
2021/03/14 08:54:48;;;;;;;15.68;3.63;;;8.30;99.90;;;;;;4980319;28;20794;-82
2021/03/14 08:57:16;;;;;;;14.38;3.60;;;8.30;99.90;;;;;;4985036;28;20109;-81
2021/03/14 08:59:54;;;;;;;15.88;3.85;;;8.40;99.90;;;;;;4989646;28;20762;-84
2021/03/14 09:02:49;;;;;;;11.30;3.45;;;8.40;99.90;;;;;;4975639;28;22994;-85
2021/03/14 09:05:19;;;;;;;20.90;3.80;;;8.40;99.90;;;;;;5006161;28;20049;-83
2021/03/14 09:07:58;;;;;;;12.23;3.67;;;8.40;99.90;;;;;;4991294;28;22674;-83
2021/03/14 09:10:24;;;;;;;15.82;3.70;;;8.50;99.90;;;;;;4985255;28;20478;-82
2021/03/14 09:12:59;;;;;;;11.88;2.95;;;8.60;99.90;;;;;;4970500;28;20437;-85
2021/03/14 09:15:27;;;;;;;14.98;3.80;;;8.70;99.90;;;;;;4995484;28;20061;-86
2021/03/14 09:17:57;;;;;;;12.07;2.97;;;8.70;99.90;;;;;;5004780;28;20046;-82
2021/03/14 09:20:26;;;;;;;8.07;2.87;;;8.80;99.90;;;;;;4979559;28;20050;-83
2021/03/14 09:22:55;;;;;;;17.35;3.00;;;8.80;99.90;;;;;;4973646;28;20277;-84
2021/03/14 09:25:21;;;;;;;13.73;2.92;;;8.80;99.90;;;;;;4977443;28;20068;-85
2021/03/14 09:27:48;;;;;;;20.35;3.22;;;8.90;99.90;;;;;;4984816;28;20053;-81
2021/03/14 09:30:19;;;;;;;11.50;2.38;;;8.90;99.90;;;;;;4991281;28;20125;-85
2021/03/14 09:32:51;;;;;;;13.65;2.80;;;8.90;99.90;;;;;;4999324;28;20049;-85
2021/03/14 09:35:32;;;;;;;11.98;2.88;;;8.90;99.90;;;;;;4989680;28;20127;-85
2021/03/14 09:38:01;;;;;;;15.05;2.60;;;8.80;99.90;;;;;;4980499;28;20133;-84
2021/03/14 09:40:42;;;;;;;17.08;2.88;;;8.70;99.90;;;;;;4975401;28;20073;-85
2021/03/14 09:43:13;;;;;;;21.50;2.58;;;8.60;99.90;;;;;;4982288;28;20089;-85
2021/03/14 09:45:49;;;;;;;9.82;2.53;;;8.60;99.90;;;;;;4990300;28;20543;-82
2021/03/14 09:48:18;;;;;;;11.32;2.20;;;8.70;99.90;;;;;;5008970;28;20049;-82
2021/03/14 09:50:44;;;;;;;12.27;2.63;;;8.70;99.90;;;;;;4995435;28;20056;-81
2021/03/14 09:53:11;;;;;;;12.55;2.35;;;8.80;99.90;;;;;;5003343;28;20046;-82
2021/03/14 09:55:41;;;;;;;19.35;3.05;;;8.90;99.90;;;;;;5009662;28;20106;-84
2021/03/14 09:58:17;;;;;;;10.10;2.20;;;9.00;99.90;;;;;;4988094;28;20053;-84
2021/03/14 10:00:45;;;;;;;11.07;2.42;;;9.20;99.90;;;;;;4994427;28;20049;-83
2021/03/14 10:03:17;;;;;;;14.02;2.85;;;9.40;99.90;;;;;;4991738;28;20053;-85
2021/03/14 10:05:48;;;;;;;12.73;2.30;;;9.50;99.90;;;;;;4996484;28;20064;-83
2021/03/14 10:08:20;;;;;;;15.45;2.47;;;9.70;99.90;;;;;;4997872;28;20054;-86
2021/03/14 10:10:57;;;;;;;13.10;2.55;;;9.80;99.90;;;;;;4993959;28;20215;-86
2021/03/14 10:13:29;;;;;;;11.50;2.40;;;9.70;99.90;;;;;;4981818;28;20120;-87
2021/03/14 10:15:57;;;;;;;11.70;2.20;;;9.70;99.90;;;;;;4979888;28;20177;-87
2021/03/14 10:18:26;;;;;;;11.02;2.00;;;9.70;99.90;;;;;;4990956;28;20054;-86
2021/03/14 10:21:17;;;;;;;16.42;2.42;;;9.70;99.90;;;;;;4981427;28;20052;-85
2021/03/14 10:23:43;;;;;;;13.88;2.72;;;9.60;99.90;;;;;;4993703;28;20041;-85
2021/03/14 10:26:12;;;;;;;14.10;2.33;;;9.50;99.90;;;;;;4991549;28;20053;-85
2021/03/14 10:28:39;;;;;;;19.23;3.92;;;9.40;99.90;;;;;;4992571;28;20805;-86
2021/03/14 10:31:08;;;;;;;11.80;2.33;;;9.50;99.90;;;;;;4981768;28;20096;-86
2021/03/14 10:33:41;;;;;;;12.80;2.03;;;9.50;99.90;;;;;;4957234;28;20548;-86
2021/03/14 10:36:13;;;;;;;7.10;1.40;;;9.50;99.90;;;;;;5010313;28;20049;-87
2021/03/14 10:38:47;;;;;;;9.20;2.17;;;9.50;99.90;;;;;;4986818;28;20060;-84
2021/03/14 10:41:14;;;;;;;11.80;2.03;;;9.60;99.90;;;;;;4998775;28;20073;-87
2021/03/14 10:43:47;;;;;;;8.45;1.67;;;9.70;99.90;;;;;;4986043;28;20077;-84
2021/03/14 10:46:34;;;;;;;9.38;1.20;;;9.80;99.90;;;;;;5011152;28;20056;-86
2021/03/14 10:49:15;;;;;;;10.80;1.30;;;9.70;99.90;;;;;;4986129;28;20077;-87
2021/03/14 10:51:43;;;;;;;16.67;4.53;;;9.50;99.90;;;;;;4985195;28;20069;-83
2021/03/14 10:54:15;;;;;;;7.90;2.13;;;9.40;99.90;;;;;;4988917;28;20042;-85
2021/03/14 10:56:51;;;;;;;12.15;1.90;;;9.20;99.90;;;;;;4997248;28;20073;-84
2021/03/14 10:59:28;;;;;;;10.75;1.77;;;9.00;99.90;;;;;;4995138;28;20113;-84
2021/03/14 11:02:16;;;;;;;6.43;1.85;;;8.90;99.90;;;;;;5011101;28;20050;-84
2021/03/14 11:04:55;;;;;;;11.93;2.20;;;8.80;99.90;;;;;;4994845;28;20508;-83
2021/03/14 11:07:25;;;;;;;11.18;2.15;;;9.00;99.90;;;;;;4968442;28;20426;-83
2021/03/14 11:10:04;;;;;;;10.32;2.00;;;9.30;99.90;;;;;;4994221;28;20077;-83
2021/03/14 11:12:32;;;;;;;6.32;1.60;;;9.60;99.90;;;;;;4996698;28;20060;-86
2021/03/14 11:15:34;;;;;;;11.10;1.63;;;9.70;99.90;;;;;;5003621;28;20123;-85
2021/03/14 11:18:03;;;;;;;10.05;1.48;;;9.90;99.90;;;;;;4992462;28;20050;-85
2021/03/14 11:20:32;;;;;;;8.77;1.90;;;10.00;99.90;;;;;;5007840;28;20053;-85
2021/03/14 11:23:05;;;;;;;12.77;2.60;;;10.10;99.90;;;;;;4976879;28;20893;-84
2021/03/14 11:25:32;;;;;;;9.77;1.65;;;10.10;99.90;;;;;;4985183;28;20058;-83
2021/03/14 11:27:58;;;;;;;11.65;1.67;;;10.20;99.90;;;;;;4995572;28;20046;-86
2021/03/14 11:30:35;;;;;;;6.22;1.70;;;10.30;99.90;;;;;;5003215;28;20037;-85
2021/03/14 11:33:02;;;;;;;5.50;1.58;;;10.50;99.90;;;;;;4994627;28;20062;-86
2021/03/14 11:35:28;;;;;;;6.75;1.33;;;10.70;99.90;;;;;;5006518;28;20042;-86
2021/03/14 11:37:54;;;;;;;7.93;1.38;;;10.70;99.90;;;;;;4989667;28;20363;-84
2021/03/14 11:40:30;;;;;;;5.38;1.30;;;10.60;99.90;;;;;;4994369;28;20056;-86
2021/03/14 11:43:00;;;;;;;8.60;1.50;;;10.60;99.90;;;;;;4961136;28;20052;-85
2021/03/14 11:45:26;;;;;;;8.68;1.45;;;10.70;99.90;;;;;;4996673;28;20169;-84
2021/03/14 11:47:52;;;;;;;4.85;1.05;;;10.90;99.90;;;;;;5002812;28;20057;-84
2021/03/14 11:50:19;;;;;;;8.05;1.20;;;11.00;99.90;;;;;;5013169;28;20076;-83
2021/03/14 11:52:49;;;;;;;7.60;1.42;;;11.10;99.90;;;;;;4979356;28;20054;-85
2021/03/14 11:55:16;;;;;;;11.90;1.70;;;11.20;99.90;;;;;;4999334;28;20132;-83
2021/03/14 11:57:43;;;;;;;10.13;2.20;;;11.30;99.90;;;;;;5011924;28;21829;-85
2021/03/14 12:00:14;;;;;;;7.25;1.27;;;11.10;99.90;;;;;;4991904;28;20046;-86
2021/03/14 12:02:41;;;;;;;9.52;1.52;;;11.10;99.90;;;;;;5012100;28;20050;-85
2021/03/14 12:05:08;;;;;;;10.38;1.50;;;10.90;99.90;;;;;;4990956;28;20081;-84
2021/03/14 12:07:34;;;;;;;8.75;1.45;;;10.70;99.90;;;;;;4991314;28;20125;-84
2021/03/14 12:10:00;;;;;;;10.07;1.55;;;10.70;99.90;;;;;;5001403;28;20049;-86
2021/03/14 12:12:26;;;;;;;14.23;1.65;;;10.80;99.90;;;;;;4984381;28;20573;-85
2021/03/14 12:14:53;;;;;;;10.93;1.25;;;11.00;99.90;;;;;;4984626;28;20050;-84
2021/03/14 12:17:20;;;;;;;11.73;1.13;;;11.20;99.90;;;;;;4959514;28;20053;-83
2021/03/14 12:19:47;;;;;;;9.68;1.58;;;11.40;99.90;;;;;;4985298;28;20050;-84
2021/03/14 12:22:16;;;;;;;6.45;1.30;;;11.50;99.90;;;;;;4999975;28;20136;-85
2021/03/14 12:24:44;;;;;;;9.88;1.30;;;11.70;99.90;;;;;;4998431;28;20128;-83
2021/03/14 12:27:14;;;;;;;6.72;0.85;;;12.00;99.90;;;;;;4997055;28;20133;-84
2021/03/14 12:29:41;;;;;;;6.97;1.65;;;12.30;99.90;;;;;;4969464;28;20059;-84
2021/03/14 12:32:07;;;;;;;4.22;0.90;;;12.40;99.90;;;;;;4999655;28;20516;-84
2021/03/14 12:34:34;;;;;;;10.30;1.45;;;12.70;99.90;;;;;;4972314;28;20053;-85
2021/03/14 12:37:00;;;;;;;9.43;1.60;;;13.00;99.90;;;;;;4984371;28;20572;-83
2021/03/14 12:39:26;;;;;;;8.02;1.30;;;13.20;99.90;;;;;;5009188;28;20076;-82
2021/03/14 12:41:53;;;;;;;5.90;1.23;;;13.30;99.90;;;;;;4985714;28;20100;-84
2021/03/14 12:44:19;;;;;;;4.75;1.02;;;13.70;99.90;;;;;;4989413;28;20053;-87
2021/03/14 12:46:45;;;;;;;9.07;1.50;;;13.80;99.90;;;;;;4988020;28;20045;-80
2021/03/14 12:49:12;;;;;;;10.73;1.70;;;13.80;99.90;;;;;;5010275;28;20950;-82
2021/03/14 12:51:38;;;;;;;7.63;1.45;;;13.70;99.90;;;;;;4997857;28;20470;-83
2021/03/14 12:54:06;;;;;;;8.40;1.85;;;13.20;98.10;;;;;;5010260;28;20556;-83
2021/03/14 12:56:35;;;;;;;5.50;1.25;;;13.10;99.90;;;;;;4990708;28;20058;-82
2021/03/14 12:59:02;;;;;;;8.38;1.25;;;14.00;99.90;;;;;;4996463;28;20074;-84
2021/03/14 13:01:28;;;;;;;10.95;1.60;;;15.30;94.70;;;;;;4966430;28;20073;-84